sensor_id;sensor_type;location;lat;lon;timestamp;temperature;humidity
7427;DHT22;3755;59.316;18.092;2023-07-24T00:02:14;13.60;99.90
7427;DHT22;3755;59.316;18.092;2023-07-24T00:04:41;13.60;99.90
7427;DHT22;3755;59.316;18.092;2023-07-24T00:07:09;13.60;99.90
7427;DHT22;3755;59.316;18.092;2023-07-24T00:09:36;13.60;99.90
7427;DHT22;3755;59.316;18.092;2023-07-24T00:12:04;13.50;99.90
7427;DHT22;3755;59.316;18.092;2023-07-24T00:14:31;13.60;99.90
7427;DHT22;3755;59.316;18.092;2023-07-24T00:16:58;13.50;99.90
7427;DHT22;3755;59.316;18.092;2023-07-24T00:19:26;13.50;99.90
7427;DHT22;3755;59.316;18.092;2023-07-24T00:21:53;13.50;99.90
7427;DHT22;3755;59.316;18.092;2023-07-24T00:24:21;13.40;99.90
7427;DHT22;3755;59.316;18.092;2023-07-24T00:26:48;13.40;99.90
7427;DHT22;3755;59.316;18.092;2023-07-24T00:29:15;13.40;99.90
7427;DHT22;3755;59.316;18.092;2023-07-24T00:31:42;13.40;99.90
7427;DHT22;3755;59.316;18.092;2023-07-24T00:34:10;13.30;99.90
7427;DHT22;3755;59.316;18.092;2023-07-24T00:36:37;13.30;99.90
7427;DHT22;3755;59.316;18.092;2023-07-24T00:39:04;13.30;99.90
7427;DHT22;3755;59.316;18.092;2023-07-24T00:41:33;13.20;99.90
7427;DHT22;3755;59.316;18.092;2023-07-24T00:44:00;13.20;99.90
7427;DHT22;3755;59.316;18.092;2023-07-24T00:46:28;13.20;99.90
7427;DHT22;3755;59.316;18.092;2023-07-24T00:48:58;13.20;99.90
7427;DHT22;3755;59.316;18.092;2023-07-24T00:51:26;13.20;99.90
7427;DHT22;3755;59.316;18.092;2023-07-24T00:53:55;13.20;99.90
7427;DHT22;3755;59.316;18.092;2023-07-24T00:56:22;13.20;99.90
7427;DHT22;3755;59.316;18.092;2023-07-24T00:58:51;13.20;99.90
7427;DHT22;3755;59.316;18.092;2023-07-24T01:01:19;13.20;99.90
7427;DHT22;3755;59.316;18.092;2023-07-24T01:03:46;13.10;99.90
7427;DHT22;3755;59.316;18.092;2023-07-24T01:06:13;13.10;99.90
7427;DHT22;3755;59.316;18.092;2023-07-24T01:08:40;13.20;99.90
7427;DHT22;3755;59.316;18.092;2023-07-24T01:11:11;13.20;99.90
7427;DHT22;3755;59.316;18.092;2023-07-24T01:13:46;13.10;99.90
7427;DHT22;3755;59.316;18.092;2023-07-24T01:16:19;13.10;99.90
7427;DHT22;3755;59.316;18.092;2023-07-24T01:18:50;13.10;99.90
7427;DHT22;3755;59.316;18.092;2023-07-24T01:21:22;13.20;99.90
7427;DHT22;3755;59.316;18.092;2023-07-24T01:23:58;13.10;99.90
7427;DHT22;3755;59.316;18.092;2023-07-24T01:26:27;13.10;99.90
7427;DHT22;3755;59.316;18.092;2023-07-24T01:28:54;13.10;99.90
7427;DHT22;3755;59.316;18.092;2023-07-24T01:31:21;13.00;99.90
7427;DHT22;3755;59.316;18.092;2023-07-24T01:33:48;13.00;99.90
7427;DHT22;3755;59.316;18.092;2023-07-24T01:36:15;13.00;99.90
7427;DHT22;3755;59.316;18.092;2023-07-24T01:38:43;13.00;99.90
7427;DHT22;3755;59.316;18.092;2023-07-24T01:41:10;13.00;99.90
7427;DHT22;3755;59.316;18.092;2023-07-24T01:43:39;13.00;99.90
7427;DHT22;3755;59.316;18.092;2023-07-24T01:46:06;12.90;99.90
7427;DHT22;3755;59.316;18.092;2023-07-24T01:48:34;12.90;99.90
7427;DHT22;3755;59.316;18.092;2023-07-24T01:51:01;12.80;99.90
7427;DHT22;3755;59.316;18.092;2023-07-24T01:53:28;12.90;99.90
7427;DHT22;3755;59.316;18.092;2023-07-24T01:55:55;12.80;99.90
7427;DHT22;3755;59.316;18.092;2023-07-24T01:58:22;12.80;99.90
7427;DHT22;3755;59.316;18.092;2023-07-24T02:00:51;12.80;99.90
7427;DHT22;3755;59.316;18.092;2023-07-24T02:03:18;12.80;99.90
7427;DHT22;3755;59.316;18.092;2023-07-24T02:05:49;12.80;99.90
7427;DHT22;3755;59.316;18.092;2023-07-24T02:08:17;12.80;99.90
7427;DHT22;3755;59.316;18.092;2023-07-24T02:10:47;12.80;99.90
7427;DHT22;3755;59.316;18.092;2023-07-24T02:13:14;12.80;99.90
7427;DHT22;3755;59.316;18.092;2023-07-24T02:15:42;12.80;99.90
7427;DHT22;3755;59.316;18.092;2023-07-24T02:18:10;12.80;99.90
7427;DHT22;3755;59.316;18.092;2023-07-24T02:20:37;12.80;99.90
7427;DHT22;3755;59.316;18.092;2023-07-24T02:23:05;12.80;99.90
7427;DHT22;3755;59.316;18.092;2023-07-24T02:25:32;12.80;99.90
7427;DHT22;3755;59.316;18.092;2023-07-24T02:27:59;12.80;99.90
7427;DHT22;3755;59.316;18.092;2023-07-24T02:30:27;12.80;99.90
7427;DHT22;3755;59.316;18.092;2023-07-24T02:32:54;12.80;99.90
7427;DHT22;3755;59.316;18.092;2023-07-24T02:35:24;12.70;99.90
7427;DHT22;3755;59.316;18.092;2023-07-24T02:37:51;12.80;99.90
7427;DHT22;3755;59.316;18.092;2023-07-24T02:40:18;12.80;99.90
7427;DHT22;3755;59.316;18.092;2023-07-24T02:42:45;12.80;99.90
7427;DHT22;3755;59.316;18.092;2023-07-24T02:45:12;12.90;99.90
7427;DHT22;3755;59.316;18.092;2023-07-24T02:47:39;12.90;99.90
7427;DHT22;3755;59.316;18.092;2023-07-24T02:50:08;12.90;99.90
7427;DHT22;3755;59.316;18.092;2023-07-24T02:52:37;13.00;99.90
7427;DHT22;3755;59.316;18.092;2023-07-24T02:55:04;13.00;99.90
7427;DHT22;3755;59.316;18.092;2023-07-24T02:57:31;13.00;99.90
7427;DHT22;3755;59.316;18.092;2023-07-24T02:59:59;13.10;99.90
7427;DHT22;3755;59.316;18.092;2023-07-24T03:02:26;13.10;99.90
7427;DHT22;3755;59.316;18.092;2023-07-24T03:04:53;13.10;99.90
7427;DHT22;3755;59.316;18.092;2023-07-24T03:07:20;13.20;99.90
7427;DHT22;3755;59.316;18.092;2023-07-24T03:09:50;13.20;99.90
7427;DHT22;3755;59.316;18.092;2023-07-24T03:12:17;13.20;99.90
7427;DHT22;3755;59.316;18.092;2023-07-24T03:14:45;13.30;99.90
7427;DHT22;3755;59.316;18.092;2023-07-24T03:17:12;13.30;99.90
7427;DHT22;3755;59.316;18.092;2023-07-24T03:19:39;13.40;99.90
7427;DHT22;3755;59.316;18.092;2023-07-24T03:22:06;13.60;99.90
7427;DHT22;3755;59.316;18.092;2023-07-24T03:24:34;13.70;99.90
7427;DHT22;3755;59.316;18.092;2023-07-24T03:27:03;13.90;99.90
7427;DHT22;3755;59.316;18.092;2023-07-24T03:29:30;14.00;99.90
7427;DHT22;3755;59.316;18.092;2023-07-24T03:31:57;14.20;99.90
7427;DHT22;3755;59.316;18.092;2023-07-24T03:34:24;14.40;99.90
7427;DHT22;3755;59.316;18.092;2023-07-24T03:36:52;14.70;99.90
7427;DHT22;3755;59.316;18.092;2023-07-24T03:39:19;14.90;99.90
7427;DHT22;3755;59.316;18.092;2023-07-24T03:41:46;15.10;99.90
7427;DHT22;3755;59.316;18.092;2023-07-24T03:44:14;15.00;99.90
7427;DHT22;3755;59.316;18.092;2023-07-24T03:46:41;15.00;99.90
7427;DHT22;3755;59.316;18.092;2023-07-24T03:49:08;15.10;99.90
7427;DHT22;3755;59.316;18.092;2023-07-24T03:51:36;15.10;99.90
7427;DHT22;3755;59.316;18.092;2023-07-24T03:54:03;15.10;99.90
7427;DHT22;3755;59.316;18.092;2023-07-24T03:56:30;15.20;99.90
7427;DHT22;3755;59.316;18.092;2023-07-24T03:58:57;15.40;99.90
7427;DHT22;3755;59.316;18.092;2023-07-24T04:01:26;15.60;99.90
7427;DHT22;3755;59.316;18.092;2023-07-24T04:03:53;15.60;99.90
7427;DHT22;3755;59.316;18.092;2023-07-24T04:06:20;15.70;99.90
7427;DHT22;3755;59.316;18.092;2023-07-24T04:08:47;15.80;99.90
7427;DHT22;3755;59.316;18.092;2023-07-24T04:11:14;15.80;99.90
7427;DHT22;3755;59.316;18.092;2023-07-24T04:13:41;15.70;99.90
7427;DHT22;3755;59.316;18.092;2023-07-24T04:16:08;15.80;99.90
7427;DHT22;3755;59.316;18.092;2023-07-24T04:18:37;15.90;99.90
7427;DHT22;3755;59.316;18.092;2023-07-24T04:21:04;15.90;99.90
7427;DHT22;3755;59.316;18.092;2023-07-24T04:23:31;16.10;99.90
7427;DHT22;3755;59.316;18.092;2023-07-24T04:25:58;16.00;99.90
7427;DHT22;3755;59.316;18.092;2023-07-24T04:28:25;16.20;99.90
7427;DHT22;3755;59.316;18.092;2023-07-24T04:30:52;16.60;99.90
7427;DHT22;3755;59.316;18.092;2023-07-24T04:33:19;17.70;99.90
7427;DHT22;3755;59.316;18.092;2023-07-24T04:35:49;18.70;99.90
7427;DHT22;3755;59.316;18.092;2023-07-24T04:38:16;18.80;99.90
7427;DHT22;3755;59.316;18.092;2023-07-24T04:40:44;18.80;99.90
7427;DHT22;3755;59.316;18.092;2023-07-24T04:43:11;19.20;99.90
7427;DHT22;3755;59.316;18.092;2023-07-24T04:45:38;19.60;99.90
7427;DHT22;3755;59.316;18.092;2023-07-24T04:48:05;20.00;99.90
7427;DHT22;3755;59.316;18.092;2023-07-24T04:50:33;20.70;99.90
7427;DHT22;3755;59.316;18.092;2023-07-24T04:53:01;20.90;99.90
7427;DHT22;3755;59.316;18.092;2023-07-24T04:55:28;20.80;99.90
7427;DHT22;3755;59.316;18.092;2023-07-24T04:57:55;20.10;99.90
7427;DHT22;3755;59.316;18.092;2023-07-24T05:00:23;19.70;99.90
7427;DHT22;3755;59.316;18.092;2023-07-24T05:02:50;19.90;99.90
7427;DHT22;3755;59.316;18.092;2023-07-24T05:05:17;19.10;99.90
7427;DHT22;3755;59.316;18.092;2023-07-24T05:07:45;18.80;99.90
7427;DHT22;3755;59.316;18.092;2023-07-24T05:10:14;19.00;99.90
7427;DHT22;3755;59.316;18.092;2023-07-24T05:12:41;18.80;99.90
7427;DHT22;3755;59.316;18.092;2023-07-24T05:15:09;18.50;99.90
7427;DHT22;3755;59.316;18.092;2023-07-24T05:17:36;18.30;99.90
7427;DHT22;3755;59.316;18.092;2023-07-24T05:20:05;18.10;99.90
7427;DHT22;3755;59.316;18.092;2023-07-24T05:22:32;17.90;99.90
7427;DHT22;3755;59.316;18.092;2023-07-24T05:24:59;17.80;99.90
7427;DHT22;3755;59.316;18.092;2023-07-24T05:27:28;17.50;99.90
7427;DHT22;3755;59.316;18.092;2023-07-24T05:29:55;17.60;99.90
7427;DHT22;3755;59.316;18.092;2023-07-24T05:32:22;17.70;99.90
7427;DHT22;3755;59.316;18.092;2023-07-24T05:34:50;17.60;99.90
7427;DHT22;3755;59.316;18.092;2023-07-24T05:37:17;17.70;99.90
7427;DHT22;3755;59.316;18.092;2023-07-24T05:39:44;17.80;99.90
7427;DHT22;3755;59.316;18.092;2023-07-24T05:42:11;17.70;99.90
7427;DHT22;3755;59.316;18.092;2023-07-24T05:44:40;17.90;99.90
7427;DHT22;3755;59.316;18.092;2023-07-24T05:47:07;18.00;99.90
7427;DHT22;3755;59.316;18.092;2023-07-24T05:49:34;18.10;99.90
7427;DHT22;3755;59.316;18.092;2023-07-24T05:52:01;18.10;99.90
7427;DHT22;3755;59.316;18.092;2023-07-24T05:54:28;17.80;99.90
7427;DHT22;3755;59.316;18.092;2023-07-24T05:56:55;17.70;99.90
7427;DHT22;3755;59.316;18.092;2023-07-24T05:59:22;17.70;99.90
7427;DHT22;3755;59.316;18.092;2023-07-24T06:01:51;17.80;99.90
7427;DHT22;3755;59.316;18.092;2023-07-24T06:04:18;17.80;99.90
7427;DHT22;3755;59.316;18.092;2023-07-24T06:06:45;17.70;99.90
7427;DHT22;3755;59.316;18.092;2023-07-24T06:09:12;17.50;99.90
7427;DHT22;3755;59.316;18.092;2023-07-24T06:11:39;17.50;99.90
7427;DHT22;3755;59.316;18.092;2023-07-24T06:14:06;17.50;99.90
7427;DHT22;3755;59.316;18.092;2023-07-24T06:16:34;17.60;99.90
7427;DHT22;3755;59.316;18.092;2023-07-24T06:19:02;17.60;99.90
7427;DHT22;3755;59.316;18.092;2023-07-24T06:21:29;17.60;99.90
7427;DHT22;3755;59.316;18.092;2023-07-24T06:23:56;17.80;99.90
7427;DHT22;3755;59.316;18.092;2023-07-24T06:26:23;18.00;99.90
7427;DHT22;3755;59.316;18.092;2023-07-24T06:28:51;18.20;99.90
7427;DHT22;3755;59.316;18.092;2023-07-24T06:31:18;18.30;99.90
7427;DHT22;3755;59.316;18.092;2023-07-24T06:33:45;18.50;99.90
7427;DHT22;3755;59.316;18.092;2023-07-24T06:36:13;18.50;99.90
7427;DHT22;3755;59.316;18.092;2023-07-24T06:38:41;18.50;99.90
7427;DHT22;3755;59.316;18.092;2023-07-24T06:41:09;18.60;99.90
7427;DHT22;3755;59.316;18.092;2023-07-24T06:43:36;18.80;99.90
7427;DHT22;3755;59.316;18.092;2023-07-24T06:46:04;18.90;99.90
7427;DHT22;3755;59.316;18.092;2023-07-24T06:48:31;18.90;99.90
7427;DHT22;3755;59.316;18.092;2023-07-24T06:50:58;19.00;99.90
7427;DHT22;3755;59.316;18.092;2023-07-24T06:53:26;19.10;99.90
7427;DHT22;3755;59.316;18.092;2023-07-24T06:55:53;19.30;99.90
7427;DHT22;3755;59.316;18.092;2023-07-24T06:58:20;19.40;99.90
7427;DHT22;3755;59.316;18.092;2023-07-24T07:00:48;19.70;99.90
7427;DHT22;3755;59.316;18.092;2023-07-24T07:03:15;19.90;99.90
7427;DHT22;3755;59.316;18.092;2023-07-24T07:05:42;20.10;99.90
7427;DHT22;3755;59.316;18.092;2023-07-24T07:08:09;20.10;99.90
7427;DHT22;3755;59.316;18.092;2023-07-24T07:10:38;20.20;99.90
7427;DHT22;3755;59.316;18.092;2023-07-24T07:13:05;20.30;99.90
7427;DHT22;3755;59.316;18.092;2023-07-24T07:15:32;20.30;99.90
7427;DHT22;3755;59.316;18.092;2023-07-24T07:17:59;20.20;99.90
7427;DHT22;3755;59.316;18.092;2023-07-24T07:20:26;20.10;99.90
7427;DHT22;3755;59.316;18.092;2023-07-24T07:22:54;20.10;99.90
7427;DHT22;3755;59.316;18.092;2023-07-24T07:25:21;20.10;99.90
7427;DHT22;3755;59.316;18.092;2023-07-24T07:27:49;20.00;99.90
7427;DHT22;3755;59.316;18.092;2023-07-24T07:30:17;19.90;99.90
7427;DHT22;3755;59.316;18.092;2023-07-24T07:32:44;19.80;99.90
7427;DHT22;3755;59.316;18.092;2023-07-24T07:35:11;19.90;99.90
7427;DHT22;3755;59.316;18.092;2023-07-24T07:37:38;19.80;99.90
7427;DHT22;3755;59.316;18.092;2023-07-24T07:40:06;20.00;99.90
7427;DHT22;3755;59.316;18.092;2023-07-24T07:42:34;20.00;99.90
7427;DHT22;3755;59.316;18.092;2023-07-24T07:45:03;20.00;99.90
7427;DHT22;3755;59.316;18.092;2023-07-24T07:47:30;20.10;99.90
7427;DHT22;3755;59.316;18.092;2023-07-24T07:49:57;20.20;99.90
7427;DHT22;3755;59.316;18.092;2023-07-24T07:52:24;20.30;99.90
7427;DHT22;3755;59.316;18.092;2023-07-24T07:54:51;20.40;99.90
7427;DHT22;3755;59.316;18.092;2023-07-24T07:57:18;20.30;99.90
7427;DHT22;3755;59.316;18.092;2023-07-24T07:59:46;20.30;99.90
7427;DHT22;3755;59.316;18.092;2023-07-24T08:02:15;20.20;99.90
7427;DHT22;3755;59.316;18.092;2023-07-24T08:04:42;20.20;99.90
7427;DHT22;3755;59.316;18.092;2023-07-24T08:07:09;20.20;99.90
7427;DHT22;3755;59.316;18.092;2023-07-24T08:09:36;20.20;99.90
7427;DHT22;3755;59.316;18.092;2023-07-24T08:12:05;20.20;99.90
7427;DHT22;3755;59.316;18.092;2023-07-24T08:14:32;20.00;99.90
7427;DHT22;3755;59.316;18.092;2023-07-24T08:16:59;20.20;99.90
7427;DHT22;3755;59.316;18.092;2023-07-24T08:19:29;20.30;99.90
7427;DHT22;3755;59.316;18.092;2023-07-24T08:21:56;20.20;99.90
7427;DHT22;3755;59.316;18.092;2023-07-24T08:24:23;20.00;99.90
7427;DHT22;3755;59.316;18.092;2023-07-24T08:26:51;20.00;99.90
7427;DHT22;3755;59.316;18.092;2023-07-24T08:29:18;20.20;99.90
7427;DHT22;3755;59.316;18.092;2023-07-24T08:31:45;20.00;99.90
7427;DHT22;3755;59.316;18.092;2023-07-24T08:34:12;20.10;99.90
7427;DHT22;3755;59.316;18.092;2023-07-24T08:36:41;20.10;99.90
7427;DHT22;3755;59.316;18.092;2023-07-24T08:39:08;20.30;99.90
7427;DHT22;3755;59.316;18.092;2023-07-24T08:41:36;20.40;98.20
7427;DHT22;3755;59.316;18.092;2023-07-24T08:44:04;20.50;97.60
7427;DHT22;3755;59.316;18.092;2023-07-24T08:46:35;20.60;98.00
7427;DHT22;3755;59.316;18.092;2023-07-24T08:49:04;20.70;99.10
7427;DHT22;3755;59.316;18.092;2023-07-24T08:51:32;20.70;99.30
7427;DHT22;3755;59.316;18.092;2023-07-24T08:54:01;20.70;98.10
7427;DHT22;3755;59.316;18.092;2023-07-24T08:56:29;20.60;98.90
7427;DHT22;3755;59.316;18.092;2023-07-24T08:58:57;20.70;99.10
7427;DHT22;3755;59.316;18.092;2023-07-24T09:01:24;20.80;99.30
7427;DHT22;3755;59.316;18.092;2023-07-24T09:03:53;20.70;99.50
7427;DHT22;3755;59.316;18.092;2023-07-24T09:06:20;20.80;99.70
7427;DHT22;3755;59.316;18.092;2023-07-24T09:08:47;20.90;98.70
7427;DHT22;3755;59.316;18.092;2023-07-24T09:11:15;20.90;97.80
7427;DHT22;3755;59.316;18.092;2023-07-24T09:13:43;21.00;97.60
7427;DHT22;3755;59.316;18.092;2023-07-24T09:16:21;20.90;97.40
7427;DHT22;3755;59.316;18.092;2023-07-24T09:18:49;21.00;97.10
7427;DHT22;3755;59.316;18.092;2023-07-24T09:21:27;21.10;97.50
7427;DHT22;3755;59.316;18.092;2023-07-24T09:23:55;21.00;97.70
7427;DHT22;3755;59.316;18.092;2023-07-24T09:26:24;21.10;97.50
7427;DHT22;3755;59.316;18.092;2023-07-24T09:28:52;21.20;96.50
7427;DHT22;3755;59.316;18.092;2023-07-24T09:31:19;21.20;95.90
7427;DHT22;3755;59.316;18.092;2023-07-24T09:33:47;21.10;95.90
7427;DHT22;3755;59.316;18.092;2023-07-24T09:36:14;21.30;95.60
7427;DHT22;3755;59.316;18.092;2023-07-24T09:38:41;21.30;93.60
7427;DHT22;3755;59.316;18.092;2023-07-24T09:41:09;21.20;93.80
7427;DHT22;3755;59.316;18.092;2023-07-24T09:43:38;21.30;93.50
7427;DHT22;3755;59.316;18.092;2023-07-24T09:46:06;21.40;94.40
7427;DHT22;3755;59.316;18.092;2023-07-24T09:48:34;21.50;95.20
7427;DHT22;3755;59.316;18.092;2023-07-24T09:51:01;21.50;96.00
7427;DHT22;3755;59.316;18.092;2023-07-24T09:53:32;21.40;96.10
7427;DHT22;3755;59.316;18.092;2023-07-24T09:56:01;21.10;96.80
7427;DHT22;3755;59.316;18.092;2023-07-24T09:58:29;21.10;96.60
7427;DHT22;3755;59.316;18.092;2023-07-24T10:01:00;21.00;95.60
7427;DHT22;3755;59.316;18.092;2023-07-24T10:03:29;21.10;95.20
7427;DHT22;3755;59.316;18.092;2023-07-24T10:05:57;21.10;94.20
7427;DHT22;3755;59.316;18.092;2023-07-24T10:08:26;21.10;94.60
7427;DHT22;3755;59.316;18.092;2023-07-24T10:10:54;21.00;95.40
7427;DHT22;3755;59.316;18.092;2023-07-24T10:13:22;20.90;95.90
7427;DHT22;3755;59.316;18.092;2023-07-24T10:15:49;20.90;96.20
7427;DHT22;3755;59.316;18.092;2023-07-24T10:18:26;20.90;96.80
7427;DHT22;3755;59.316;18.092;2023-07-24T10:21:00;20.80;96.60
7427;DHT22;3755;59.316;18.092;2023-07-24T10:23:28;20.70;97.40
7427;DHT22;3755;59.316;18.092;2023-07-24T10:26:01;21.00;97.40
7427;DHT22;3755;59.316;18.092;2023-07-24T10:28:33;21.00;96.20
7427;DHT22;3755;59.316;18.092;2023-07-24T10:31:01;21.10;96.60
7427;DHT22;3755;59.316;18.092;2023-07-24T10:33:31;21.20;96.40
7427;DHT22;3755;59.316;18.092;2023-07-24T10:36:07;21.30;96.50
7427;DHT22;3755;59.316;18.092;2023-07-24T10:38:37;21.30;96.20
7427;DHT22;3755;59.316;18.092;2023-07-24T10:41:06;21.60;96.00
7427;DHT22;3755;59.316;18.092;2023-07-24T10:43:44;21.60;94.80
7427;DHT22;3755;59.316;18.092;2023-07-24T10:46:13;21.40;94.80
7427;DHT22;3755;59.316;18.092;2023-07-24T10:48:44;21.30;94.90
7427;DHT22;3755;59.316;18.092;2023-07-24T10:51:13;21.10;94.30
7427;DHT22;3755;59.316;18.092;2023-07-24T10:53:43;21.10;93.60
7427;DHT22;3755;59.316;18.092;2023-07-24T10:56:11;21.20;94.10
7427;DHT22;3755;59.316;18.092;2023-07-24T10:58:38;21.10;94.40
7427;DHT22;3755;59.316;18.092;2023-07-24T11:01:05;21.10;94.70
7427;DHT22;3755;59.316;18.092;2023-07-24T11:03:35;21.30;94.90
7427;DHT22;3755;59.316;18.092;2023-07-24T11:06:04;21.50;94.80
7427;DHT22;3755;59.316;18.092;2023-07-24T11:08:31;21.70;94.30
7427;DHT22;3755;59.316;18.092;2023-07-24T11:10:59;21.60;94.40
7427;DHT22;3755;59.316;18.092;2023-07-24T11:13:28;21.40;94.50
7427;DHT22;3755;59.316;18.092;2023-07-24T11:15:56;21.50;94.70
7427;DHT22;3755;59.316;18.092;2023-07-24T11:18:30;21.60;94.90
7427;DHT22;3755;59.316;18.092;2023-07-24T11:20:57;21.50;94.60
7427;DHT22;3755;59.316;18.092;2023-07-24T11:23:26;21.50;94.50
7427;DHT22;3755;59.316;18.092;2023-07-24T11:25:57;21.40;94.10
7427;DHT22;3755;59.316;18.092;2023-07-24T11:28:24;21.50;93.80
7427;DHT22;3755;59.316;18.092;2023-07-24T11:30:51;21.50;93.90
7427;DHT22;3755;59.316;18.092;2023-07-24T11:33:19;21.50;94.40
7427;DHT22;3755;59.316;18.092;2023-07-24T11:35:46;21.80;94.90
7427;DHT22;3755;59.316;18.092;2023-07-24T11:38:14;21.60;94.60
7427;DHT22;3755;59.316;18.092;2023-07-24T11:40:43;21.60;94.50
7427;DHT22;3755;59.316;18.092;2023-07-24T11:43:18;21.80;94.50
7427;DHT22;3755;59.316;18.092;2023-07-24T11:45:49;22.00;94.60
7427;DHT22;3755;59.316;18.092;2023-07-24T11:48:19;22.10;95.00
7427;DHT22;3755;59.316;18.092;2023-07-24T11:50:47;22.10;96.10
7427;DHT22;3755;59.316;18.092;2023-07-24T11:53:21;22.10;96.00
7427;DHT22;3755;59.316;18.092;2023-07-24T11:55:51;21.90;96.50
7427;DHT22;3755;59.316;18.092;2023-07-24T11:58:20;21.90;97.20
7427;DHT22;3755;59.316;18.092;2023-07-24T12:00:48;21.90;97.20
7427;DHT22;3755;59.316;18.092;2023-07-24T12:03:19;21.90;96.30
7427;DHT22;3755;59.316;18.092;2023-07-24T12:05:47;21.90;96.00
7427;DHT22;3755;59.316;18.092;2023-07-24T12:08:16;22.00;93.50
7427;DHT22;3755;59.316;18.092;2023-07-24T12:10:44;22.00;92.90
7427;DHT22;3755;59.316;18.092;2023-07-24T12:13:13;21.80;93.20
7427;DHT22;3755;59.316;18.092;2023-07-24T12:15:40;21.60;93.10
7427;DHT22;3755;59.316;18.092;2023-07-24T12:18:08;21.60;93.50
7427;DHT22;3755;59.316;18.092;2023-07-24T12:20:35;21.90;93.10
7427;DHT22;3755;59.316;18.092;2023-07-24T12:23:02;21.90;92.60
7427;DHT22;3755;59.316;18.092;2023-07-24T12:25:29;21.70;93.60
7427;DHT22;3755;59.316;18.092;2023-07-24T12:27:57;21.80;93.40
7427;DHT22;3755;59.316;18.092;2023-07-24T12:30:25;21.70;92.90
7427;DHT22;3755;59.316;18.092;2023-07-24T12:32:53;21.60;93.00
7427;DHT22;3755;59.316;18.092;2023-07-24T12:35:20;21.50;93.40
7427;DHT22;3755;59.316;18.092;2023-07-24T12:37:47;21.60;93.60
7427;DHT22;3755;59.316;18.092;2023-07-24T12:40:14;21.60;94.00
7427;DHT22;3755;59.316;18.092;2023-07-24T12:42:41;21.60;94.30
7427;DHT22;3755;59.316;18.092;2023-07-24T12:45:09;21.60;94.30
7427;DHT22;3755;59.316;18.092;2023-07-24T12:47:37;21.70;94.30
7427;DHT22;3755;59.316;18.092;2023-07-24T12:50:05;21.50;95.30
7427;DHT22;3755;59.316;18.092;2023-07-24T12:52:32;21.30;95.10
7427;DHT22;3755;59.316;18.092;2023-07-24T12:54:59;21.50;95.30
7427;DHT22;3755;59.316;18.092;2023-07-24T12:57:27;21.50;95.50
7427;DHT22;3755;59.316;18.092;2023-07-24T12:59:54;21.50;95.30
7427;DHT22;3755;59.316;18.092;2023-07-24T13:02:21;21.30;95.50
7427;DHT22;3755;59.316;18.092;2023-07-24T13:04:50;21.10;95.40
7427;DHT22;3755;59.316;18.092;2023-07-24T13:07:17;21.00;96.20
7427;DHT22;3755;59.316;18.092;2023-07-24T13:09:44;20.90;96.30
7427;DHT22;3755;59.316;18.092;2023-07-24T13:12:12;20.90;95.60
7427;DHT22;3755;59.316;18.092;2023-07-24T13:14:39;20.80;95.50
7427;DHT22;3755;59.316;18.092;2023-07-24T13:17:06;20.80;96.00
7427;DHT22;3755;59.316;18.092;2023-07-24T13:19:34;21.00;95.70
7427;DHT22;3755;59.316;18.092;2023-07-24T13:22:02;21.20;95.60
7427;DHT22;3755;59.316;18.092;2023-07-24T13:24:30;21.30;95.70
7427;DHT22;3755;59.316;18.092;2023-07-24T13:26:57;21.40;96.00
7427;DHT22;3755;59.316;18.092;2023-07-24T13:29:24;21.30;98.50
7427;DHT22;3755;59.316;18.092;2023-07-24T13:31:51;21.20;97.00
7427;DHT22;3755;59.316;18.092;2023-07-24T13:34:18;21.10;96.20
7427;DHT22;3755;59.316;18.092;2023-07-24T13:36:46;21.00;96.30
7427;DHT22;3755;59.316;18.092;2023-07-24T13:39:14;21.10;98.40
7427;DHT22;3755;59.316;18.092;2023-07-24T13:41:43;21.10;99.50
7427;DHT22;3755;59.316;18.092;2023-07-24T13:44:11;21.10;99.90
7427;DHT22;3755;59.316;18.092;2023-07-24T13:46:38;20.90;99.90
7427;DHT22;3755;59.316;18.092;2023-07-24T13:49:06;20.80;99.90
7427;DHT22;3755;59.316;18.092;2023-07-24T13:51:33;20.60;99.90
7427;DHT22;3755;59.316;18.092;2023-07-24T13:54:00;20.60;99.90
7427;DHT22;3755;59.316;18.092;2023-07-24T13:56:29;20.40;99.90
7427;DHT22;3755;59.316;18.092;2023-07-24T13:58:59;20.40;99.90
7427;DHT22;3755;59.316;18.092;2023-07-24T14:01:26;20.30;99.90
7427;DHT22;3755;59.316;18.092;2023-07-24T14:03:53;20.30;99.90
7427;DHT22;3755;59.316;18.092;2023-07-24T14:06:20;20.40;99.90
7427;DHT22;3755;59.316;18.092;2023-07-24T14:08:47;20.50;99.90
7427;DHT22;3755;59.316;18.092;2023-07-24T14:11:15;20.70;99.90
7427;DHT22;3755;59.316;18.092;2023-07-24T14:13:44;20.80;99.90
7427;DHT22;3755;59.316;18.092;2023-07-24T14:16:12;20.60;99.90
7427;DHT22;3755;59.316;18.092;2023-07-24T14:18:41;20.50;99.90
7427;DHT22;3755;59.316;18.092;2023-07-24T14:21:08;20.40;99.90
7427;DHT22;3755;59.316;18.092;2023-07-24T14:23:35;20.30;99.90
7427;DHT22;3755;59.316;18.092;2023-07-24T14:26:03;20.30;99.90
7427;DHT22;3755;59.316;18.092;2023-07-24T14:28:30;20.40;99.90
7427;DHT22;3755;59.316;18.092;2023-07-24T14:30:59;20.50;99.90
7427;DHT22;3755;59.316;18.092;2023-07-24T14:33:26;20.50;99.90
7427;DHT22;3755;59.316;18.092;2023-07-24T14:35:53;20.50;99.90
7427;DHT22;3755;59.316;18.092;2023-07-24T14:38:21;20.50;99.90
7427;DHT22;3755;59.316;18.092;2023-07-24T14:40:48;20.60;99.90
7427;DHT22;3755;59.316;18.092;2023-07-24T14:43:15;20.40;99.90
7427;DHT22;3755;59.316;18.092;2023-07-24T14:45:43;20.50;99.90
7427;DHT22;3755;59.316;18.092;2023-07-24T14:48:11;20.50;99.90
7427;DHT22;3755;59.316;18.092;2023-07-24T14:50:40;20.50;99.90
7427;DHT22;3755;59.316;18.092;2023-07-24T14:53:07;20.50;99.90
7427;DHT22;3755;59.316;18.092;2023-07-24T14:55:34;20.50;99.90
7427;DHT22;3755;59.316;18.092;2023-07-24T14:58:02;20.20;99.90
7427;DHT22;3755;59.316;18.092;2023-07-24T15:00:30;20.30;99.90
7427;DHT22;3755;59.316;18.092;2023-07-24T15:02:57;20.30;99.90
7427;DHT22;3755;59.316;18.092;2023-07-24T15:05:25;20.30;99.90
7427;DHT22;3755;59.316;18.092;2023-07-24T15:07:52;20.30;99.90
7427;DHT22;3755;59.316;18.092;2023-07-24T15:10:20;20.30;99.90
7427;DHT22;3755;59.316;18.092;2023-07-24T15:12:47;20.30;99.90
7427;DHT22;3755;59.316;18.092;2023-07-24T15:15:14;20.20;99.90
7427;DHT22;3755;59.316;18.092;2023-07-24T15:17:42;20.30;99.90
7427;DHT22;3755;59.316;18.092;2023-07-24T15:20:10;20.30;99.90
7427;DHT22;3755;59.316;18.092;2023-07-24T15:22:40;20.40;99.90
7427;DHT22;3755;59.316;18.092;2023-07-24T15:25:07;20.40;99.90
7427;DHT22;3755;59.316;18.092;2023-07-24T15:27:35;20.40;99.90
7427;DHT22;3755;59.316;18.092;2023-07-24T15:30:03;20.40;99.90
7427;DHT22;3755;59.316;18.092;2023-07-24T15:32:31;20.20;99.90
7427;DHT22;3755;59.316;18.092;2023-07-24T15:34:58;20.30;99.90
7427;DHT22;3755;59.316;18.092;2023-07-24T15:37:26;20.40;99.90
7427;DHT22;3755;59.316;18.092;2023-07-24T15:39:57;20.50;99.90
7427;DHT22;3755;59.316;18.092;2023-07-24T15:42:25;20.30;99.90
7427;DHT22;3755;59.316;18.092;2023-07-24T15:44:52;19.90;99.90
7427;DHT22;3755;59.316;18.092;2023-07-24T15:47:19;19.80;99.90
7427;DHT22;3755;59.316;18.092;2023-07-24T15:49:46;19.80;99.90